Time;durP1;ratioP1;P1;durP2;ratioP2;P2;SDS_P1;SDS_P2;PMS_P1;PMS_P2;Temp;Humidity;BMP_temperature;BMP_pressure;BME280_temperature;BME280_humidity;BME280_pressure;Samples;Min_cycle;Max_cycle;Signal;HPM_P1;HPM_P2
2023/01/09 00:00:55;;;;;;;1.02;0.70;;;;;;;9.18;47.90;99082.69;5059750;28;20044;-81
2023/01/09 00:03:23;;;;;;;1.42;0.63;;;;;;;9.16;48.15;99093.78;5057824;28;20049;-82
2023/01/09 00:05:51;;;;;;;1.55;0.43;;;;;;;9.13;47.80;99085.94;5054182;28;20059;-82
2023/01/09 00:08:19;;;;;;;0.38;0.38;;;;;;;9.12;48.04;99097.00;5052995;28;20033;-82
2023/01/09 00:10:49;;;;;;;0.50;0.32;;;;;;;9.10;48.13;99091.72;5050765;28;20044;-82
2023/01/09 00:13:17;;;;;;;0.55;0.30;;;;;;;9.06;48.03;99087.63;5053043;28;20460;-82
2023/01/09 00:15:47;;;;;;;0.35;0.30;;;;;;;9.04;47.74;99093.25;5057217;28;20040;-82
2023/01/09 00:18:15;;;;;;;0.40;0.25;;;;;;;9.00;47.93;99080.94;5054659;28;20048;-83
2023/01/09 00:20:43;;;;;;;0.35;0.30;;;;;;;8.98;48.02;99090.34;5057397;28;20041;-82
2023/01/09 00:23:11;;;;;;;0.20;0.20;;;;;;;8.96;48.05;99086.91;5041988;28;20127;-83
2023/01/09 00:25:39;;;;;;;0.35;0.28;;;;;;;8.93;48.18;99088.09;5054077;28;20041;-81
2023/01/09 00:28:09;;;;;;;0.28;0.20;;;;;;;8.91;48.29;99086.56;5070332;28;20037;-83
2023/01/09 00:30:37;;;;;;;0.52;0.30;;;;;;;8.88;48.06;99082.28;5073757;28;20065;-82
2023/01/09 00:33:07;;;;;;;0.40;0.40;;;;;;;8.89;48.48;99088.59;5047853;28;20044;-81
2023/01/09 00:35:35;;;;;;;2.35;0.50;;;;;;;8.86;48.16;99084.31;5060378;28;20041;-81
2023/01/09 00:38:03;;;;;;;0.50;0.35;;;;;;;8.84;48.10;99093.69;5049864;28;20453;-81
2023/01/09 00:40:31;;;;;;;1.05;0.30;;;;;;;8.83;47.90;99098.31;5052575;28;20136;-82
2023/01/09 00:43:00;;;;;;;0.63;0.20;;;;;;;8.82;47.77;99093.03;5052515;28;20041;-80
2023/01/09 00:45:29;;;;;;;0.25;0.20;;;;;;;8.82;48.12;99087.56;5056845;28;20129;-81
2023/01/09 00:48:02;;;;;;;0.20;0.20;;;;;;;8.81;47.96;99091.31;5045814;28;20040;-82
2023/01/09 00:50:33;;;;;;;0.20;0.20;;;;;;;8.77;47.71;99101.69;5059516;28;20426;-82
2023/01/09 00:53:06;;;;;;;0.10;0.10;;;;;;;8.76;48.28;99110.88;5064845;28;20140;-82
2023/01/09 00:55:37;;;;;;;0.43;0.20;;;;;;;8.75;47.86;99111.94;5044850;28;20040;-82
2023/01/09 00:58:05;;;;;;;0.35;0.25;;;;;;;8.73;47.81;99113.97;5050572;28;20098;-81
2023/01/09 01:00:33;;;;;;;1.67;0.28;;;;;;;8.73;47.83;99118.56;5047758;28;20045;-81
2023/01/09 01:03:01;;;;;;;0.80;0.30;;;;;;;8.71;47.86;99124.16;5070676;28;20082;-80
2023/01/09 01:08:18;;;;;;;0.20;0.20;;;;;;;8.69;48.31;99115.28;5062670;28;20454;-81
2023/01/09 01:10:48;;;;;;;0.20;0.20;;;;;;;8.66;48.20;99130.13;5070401;28;20064;-81
2023/01/09 01:13:16;;;;;;;0.25;0.22;;;;;;;8.67;47.83;99117.34;5052522;28;20059;-80
2023/01/09 01:15:45;;;;;;;0.50;0.30;;;;;;;8.66;47.98;99116.50;5053637;28;20049;-81
2023/01/09 01:18:14;;;;;;;0.20;0.20;;;;;;;8.66;48.26;99121.94;5049926;28;20055;-81
2023/01/09 01:20:43;;;;;;;0.20;0.20;;;;;;;8.65;48.14;99131.16;5066424;28;20041;-81
2023/01/09 01:23:11;;;;;;;0.20;0.20;;;;;;;8.64;48.28;99137.63;5047581;28;20048;-81
2023/01/09 01:25:42;;;;;;;0.22;0.20;;;;;;;8.65;48.30;99142.06;5071433;28;20538;-81
2023/01/09 01:28:10;;;;;;;0.20;0.20;;;;;;;8.63;48.17;99144.09;5057336;28;20044;-80
2023/01/09 01:30:39;;;;;;;0.38;0.20;;;;;;;8.63;48.32;99138.63;5061807;28;20041;-81
2023/01/09 01:33:07;;;;;;;0.20;0.20;;;;;;;8.62;48.57;99130.59;5057200;28;20052;-81
2023/01/09 01:35:35;;;;;;;0.30;0.22;;;;;;;8.63;48.49;99130.44;5048435;28;20053;-81
2023/01/09 01:38:03;;;;;;;0.22;0.22;;;;;;;8.64;48.40;99134.03;5050746;28;20139;-82
2023/01/09 01:40:33;;;;;;;0.45;0.28;;;;;;;8.63;48.65;99130.44;5056201;28;20032;-82
2023/01/09 01:43:02;;;;;;;0.38;0.30;;;;;;;8.64;48.36;99132.16;5058286;28;20053;-81
2023/01/09 01:45:31;;;;;;;0.85;0.20;;;;;;;8.65;48.51;99135.75;5051550;28;20060;-81
2023/01/09 01:48:03;;;;;;;1.15;0.20;;;;;;;8.65;48.47;99139.34;5073167;28;20037;-80
2023/01/09 01:50:35;;;;;;;0.60;0.30;;;;;;;8.65;48.62;99146.66;5065442;28;20563;-82
2023/01/09 01:53:09;;;;;;;0.60;0.40;;;;;;;8.64;49.02;99140.34;5043462;28;20048;-82
2023/01/09 01:55:42;;;;;;;0.22;0.22;;;;;;;8.65;48.66;99147.50;5055520;28;20037;-82
2023/01/09 01:58:15;;;;;;;0.70;0.40;;;;;;;8.65;48.91;99146.66;5083239;28;20116;-81
2023/01/09 02:00:46;;;;;;;0.63;0.40;;;;;;;8.65;48.78;99154.84;5060684;28;20507;-81
2023/01/09 02:03:17;;;;;;;0.57;0.40;;;;;;;8.66;48.64;99156.56;5054623;28;20040;-81
2023/01/09 02:05:45;;;;;;;1.13;0.40;;;;;;;8.64;48.49;99155.84;5059213;28;20074;-81
2023/01/09 02:08:13;;;;;;;0.52;0.50;;;;;;;8.62;48.61;99158.75;5055763;28;20048;-82
2023/01/09 02:10:42;;;;;;;0.63;0.50;;;;;;;8.65;48.35;99163.03;5057976;28;20292;-80
2023/01/09 02:13:13;;;;;;;1.52;0.60;;;;;;;8.66;48.75;99164.72;5067517;28;20041;-81
2023/01/09 02:15:55;;;;;;;1.25;0.70;;;;;;;8.68;49.02;99162.66;5067646;28;20055;-80
2023/01/09 02:18:47;;;;;;;0.77;0.40;;;;;;;8.64;49.26;99166.75;5049290;28;20131;-81
2023/01/09 02:21:24;;;;;;;1.02;0.50;;;;;;;8.64;48.57;99170.34;5053690;28;20036;-81
2023/01/09 02:24:28;;;;;;;0.30;0.30;;;;;;;8.61;49.22;99161.63;5056114;28;20131;-81
2023/01/09 02:27:30;;;;;;;0.52;0.43;;;;;;;8.61;49.45;99164.34;5055141;28;20052;-82
2023/01/09 02:30:25;;;;;;;0.95;0.50;;;;;;;8.61;49.42;99156.16;5053130;28;20118;-82
2023/01/09 02:33:17;;;;;;;0.40;0.35;;;;;;;8.63;48.74;99159.59;5072483;28;20665;-80
2023/01/09 02:36:18;;;;;;;1.90;0.52;;;;;;;8.58;48.82;99162.81;5056162;28;20037;-81
2023/01/09 02:38:56;;;;;;;0.70;0.50;;;;;;;8.62;48.65;99164.19;5020950;28;20060;-81
2023/01/09 02:41:30;;;;;;;0.70;0.50;;;;;;;8.60;48.41;99168.94;5076552;28;20045;-81
2023/01/09 02:44:12;;;;;;;0.55;0.50;;;;;;;8.61;48.59;99181.56;5068676;28;20744;-82
2023/01/09 02:46:42;;;;;;;0.93;0.60;;;;;;;8.59;48.18;99172.69;5059650;28;20041;-82
2023/01/09 02:49:11;;;;;;;1.02;0.50;;;;;;;8.58;48.10;99168.28;5056227;28;20446;-80
2023/01/09 02:51:51;;;;;;;1.80;0.60;;;;;;;8.61;48.44;99175.25;5058041;28;20040;-81
2023/01/09 02:54:28;;;;;;;0.73;0.45;;;;;;;8.59;48.36;99172.69;5071685;28;20036;-80
2023/01/09 02:57:11;;;;;;;1.33;0.70;;;;;;;8.58;47.93;99168.28;5068611;28;20163;-80
2023/01/09 02:59:48;;;;;;;;;;;;;;;8.32;48.61;99170.16;5073396;28;20361;-80
2023/01/09 03:02:34;;;;;;;1.80;0.60;;;;;;;8.53;48.30;99178.78;5052768;28;19946;-80
2023/01/09 03:05:11;;;;;;;1.33;0.65;;;;;;;8.55;48.03;99167.72;5068192;28;20131;-80
2023/01/09 03:07:45;;;;;;;1.02;0.63;;;;;;;8.53;47.95;99170.63;5069943;28;20511;-80
2023/01/09 03:10:20;;;;;;;1.63;0.98;;;;;;;8.54;47.74;99174.19;5054727;28;20082;-81
2023/01/09 03:12:53;;;;;;;0.90;0.55;;;;;;;8.52;47.97;99182.53;5042498;28;20073;-80
2023/01/09 03:15:25;;;;;;;2.08;0.80;;;;;;;8.48;47.76;99178.44;5055106;28;20045;-80
2023/01/09 03:17:55;;;;;;;1.93;0.77;;;;;;;8.49;47.72;99190.19;5068267;28;20129;-81
2023/01/09 03:20:26;;;;;;;0.80;0.70;;;;;;;8.49;47.64;99190.19;5046570;28;20090;-79
2023/01/09 03:22:56;;;;;;;1.92;0.70;;;;;;;8.48;47.66;99188.50;5052652;28;20058;-80
2023/01/09 03:25:26;;;;;;;1.45;0.70;;;;;;;8.48;47.73;99193.94;5067893;28;20094;-80
2023/01/09 03:27:57;;;;;;;2.10;0.82;;;;;;;8.46;47.85;99193.25;5050049;28;20075;-81
2023/01/09 03:30:27;;;;;;;1.33;0.70;;;;;;;8.46;47.56;99202.28;5050487;28;20091;-80
2023/01/09 03:32:57;;;;;;;2.13;1.00;;;;;;;8.43;47.68;99209.91;5054383;28;20551;-81
2023/01/09 03:35:25;;;;;;;1.30;0.80;;;;;;;8.42;47.37;99214.53;5042704;28;20079;-80
2023/01/09 03:37:53;;;;;;;2.15;1.00;;;;;;;8.41;47.40;99212.81;5063578;28;20062;-80
2023/01/09 03:40:22;;;;;;;1.60;0.77;;;;;;;8.39;47.41;99214.84;5060990;28;20036;-81
2023/01/09 03:42:49;;;;;;;1.58;0.88;;;;;;;8.39;47.70;99219.44;5055344;28;20628;-80
2023/01/09 03:45:17;;;;;;;0.93;0.82;;;;;;;8.37;47.35;99222.31;5051398;28;20041;-79
2023/01/09 03:47:45;;;;;;;1.52;0.82;;;;;;;8.36;47.22;99225.19;5045384;28;20461;-80
2023/01/09 03:50:15;;;;;;;1.67;0.88;;;;;;;8.36;47.55;99225.19;5068556;28;20469;-80
2023/01/09 03:52:43;;;;;;;1.33;0.68;;;;;;;8.34;47.23;99211.75;5044597;28;20040;-81
2023/01/09 03:55:11;;;;;;;1.73;0.90;;;;;;;8.32;47.54;99214.63;5057301;28;20041;-80
2023/01/09 03:57:41;;;;;;;2.15;0.80;;;;;;;8.31;47.38;99207.47;5069177;28;20191;-80
2023/01/09 04:00:10;;;;;;;1.15;0.85;;;;;;;8.31;47.53;99207.47;5044061;28;20048;-80
2023/01/09 04:02:42;;;;;;;2.47;0.77;;;;;;;8.26;47.63;99207.06;5064420;28;20041;-80
2023/01/09 04:05:10;;;;;;;1.50;0.80;;;;;;;8.29;47.52;99205.91;5051690;28;20045;-79
2023/01/09 04:07:39;;;;;;;2.50;0.80;;;;;;;8.29;47.43;99212.22;5065046;28;20128;-79
2023/01/09 04:10:08;;;;;;;2.90;1.10;;;;;;;8.28;47.43;99217.81;5046632;28;20055;-81
2023/01/09 04:12:36;;;;;;;2.55;0.82;;;;;;;8.27;47.31;99216.09;5056638;28;20041;-81
2023/01/09 04:15:05;;;;;;;2.95;1.00;;;;;;;8.26;47.55;99214.38;5065250;28;20049;-81
2023/01/09 04:17:33;;;;;;;1.88;1.20;;;;;;;8.25;47.50;99216.28;5047560;28;20040;-80
2023/01/09 04:20:00;;;;;;;1.35;1.00;;;;;;;8.25;47.77;99221.75;5041987;28;20144;-80
2023/01/09 04:22:30;;;;;;;1.52;0.80;;;;;;;8.25;47.55;99226.34;5054228;28;20037;-80
2023/01/09 04:24:59;;;;;;;3.13;1.00;;;;;;;8.24;47.86;99216.44;5050652;28;20047;-80
2023/01/09 04:27:27;;;;;;;2.40;0.90;;;;;;;8.23;47.65;99222.91;5053425;28;20040;-80
2023/01/09 04:29:54;;;;;;;2.47;1.10;;;;;;;8.23;47.81;99222.91;5060373;28;20048;-80
2023/01/09 04:32:22;;;;;;;7.05;1.30;;;;;;;8.23;47.47;99236.53;5056299;28;20040;-81
2023/01/09 04:34:50;;;;;;;2.53;1.25;;;;;;;8.22;47.17;99234.81;5053448;28;20392;-81
2023/01/09 04:37:18;;;;;;;3.00;1.10;;;;;;;8.22;47.36;99245.72;5048878;28;20044;-81
2023/01/09 04:39:46;;;;;;;3.63;1.25;;;;;;;8.19;47.57;99241.44;5046037;28;20531;-80
2023/01/09 04:42:15;;;;;;;2.60;1.05;;;;;;;8.19;47.24;99246.88;5053901;28;20044;-81
2023/01/09 04:44:43;;;;;;;2.53;1.30;;;;;;;8.17;47.30;99248.06;5062551;28;20060;-80
2023/01/09 04:47:12;;;;;;;2.58;1.02;;;;;;;8.16;47.34;99257.25;5067934;28;20051;-80
2023/01/09 04:49:40;;;;;;;2.60;1.05;;;;;;;8.15;47.17;99256.41;5066132;28;20402;-80
2023/01/09 04:52:08;;;;;;;2.92;0.90;;;;;;;8.14;47.38;99257.41;5053518;28;20591;-81
2023/01/09 04:54:38;;;;;;;4.55;1.20;;;;;;;8.13;47.24;99257.53;5045962;28;20377;-80
2023/01/09 04:57:06;;;;;;;2.40;1.17;;;;;;;8.11;47.34;99265.84;5046132;28;20088;-80
2023/01/09 04:59:35;;;;;;;3.63;1.00;;;;;;;8.12;47.38;99259.41;5048778;28;20028;-80
2023/01/09 05:02:03;;;;;;;1.67;0.80;;;;;;;8.09;47.11;99264.31;5055540;28;20469;-81
2023/01/09 05:04:31;;;;;;;2.25;0.93;;;;;;;8.08;47.33;99274.38;5053844;28;20135;-82
2023/01/09 05:06:59;;;;;;;2.58;0.80;;;;;;;8.09;47.33;99275.22;5072150;28;20036;-81
2023/01/09 05:09:27;;;;;;;2.97;1.13;;;;;;;8.06;47.26;99273.66;5071296;28;20127;-81
2023/01/09 05:11:55;;;;;;;1.88;0.90;;;;;;;8.06;47.22;99279.13;5064004;28;20044;-80
2023/01/09 05:14:23;;;;;;;2.97;1.00;;;;;;;8.05;47.28;99280.13;5050559;28;20057;-81
2023/01/09 05:16:52;;;;;;;3.22;0.90;;;;;;;8.06;46.78;99284.56;5051095;28;20094;-81
2023/01/09 05:19:20;;;;;;;1.98;0.90;;;;;;;8.05;46.84;99287.44;5061172;28;20071;-80
2023/01/09 05:21:48;;;;;;;2.28;0.93;;;;;;;8.03;46.72;99279.41;5052631;28;20156;-79
2023/01/09 05:24:16;;;;;;;2.88;1.02;;;;;;;8.03;47.06;99282.13;5052504;28;20045;-81
2023/01/09 05:26:44;;;;;;;2.75;0.90;;;;;;;8.01;46.82;99286.91;5052472;28;20051;-80
2023/01/09 05:29:11;;;;;;;5.10;1.10;;;;;;;8.02;46.96;99290.47;5063262;28;20037;-81
2023/01/09 05:31:39;;;;;;;2.60;0.90;;;;;;;8.01;46.81;99289.63;5064817;28;20044;-81
2023/01/09 05:34:08;;;;;;;3.78;1.08;;;;;;;8.03;46.67;99286.72;5045739;28;20151;-81
2023/01/09 05:36:36;;;;;;;2.60;1.10;;;;;;;8.01;46.97;99289.63;5056644;28;20585;-79
2023/01/09 05:39:04;;;;;;;2.55;0.90;;;;;;;8.02;47.07;99290.47;5054071;28;20044;-80
2023/01/09 05:41:32;;;;;;;2.70;0.80;;;;;;;8.00;46.55;99282.47;5056631;28;20102;-80
2023/01/09 05:43:59;;;;;;;2.20;0.93;;;;;;;8.01;46.55;99294.22;5054881;28;20047;-81
2023/01/09 05:46:27;;;;;;;2.58;1.00;;;;;;;8.01;46.75;99296.94;5051456;28;20404;-81
2023/01/09 05:48:55;;;;;;;1.92;1.00;;;;;;;8.02;46.97;99301.34;5053172;28;20040;-82
2023/01/09 05:51:24;;;;;;;2.65;0.75;;;;;;;8.03;46.86;99287.59;5063698;28;20507;-82
2023/01/09 05:53:52;;;;;;;3.85;0.82;;;;;;;8.01;47.00;99289.63;5051092;28;20265;-81
2023/01/09 05:56:20;;;;;;;3.38;0.90;;;;;;;8.01;46.90;99294.22;5051270;28;20053;-81
2023/01/09 05:58:48;;;;;;;3.45;0.88;;;;;;;8.03;46.86;99292.19;5070688;28;20033;-81
2023/01/09 06:01:16;;;;;;;3.17;0.80;;;;;;;8.03;47.14;99301.22;5052856;28;20053;-81
2023/01/09 06:03:44;;;;;;;2.20;1.05;;;;;;;8.05;47.14;99292.88;5050152;28;20033;-81
2023/01/09 06:06:11;;;;;;;5.85;1.13;;;;;;;8.05;46.73;99296.47;5047832;28;20059;-82
2023/01/09 06:08:41;;;;;;;3.05;0.85;;;;;;;8.05;46.84;99296.47;5043104;28;20499;-80
2023/01/09 06:11:09;;;;;;;1.77;0.70;;;;;;;8.06;47.07;99295.47;5044571;28;20366;-81
2023/01/09 06:13:37;;;;;;;3.28;0.80;;;;;;;8.08;46.96;99292.59;5026935;28;20044;-81
2023/01/09 06:16:05;;;;;;;2.08;0.75;;;;;;;8.08;47.04;99295.31;5030092;28;20045;-81
2023/01/09 06:18:33;;;;;;;2.28;0.80;;;;;;;8.08;46.98;99296.16;5031335;28;20127;-81
2023/01/09 06:21:01;;;;;;;2.58;1.00;;;;;;;8.10;46.96;99295.97;5044776;28;20052;-82
2023/01/09 06:23:29;;;;;;;2.35;0.73;;;;;;;8.10;46.64;99296.84;5065014;28;20036;-80
2023/01/09 06:25:58;;;;;;;2.95;0.77;;;;;;;8.12;46.84;99291.25;5048315;28;20047;-81
2023/01/09 06:28:26;;;;;;;4.43;1.40;;;;;;;8.10;47.23;99291.38;5072322;28;20526;-81
2023/01/09 06:30:54;;;;;;;2.08;0.70;;;;;;;8.11;47.20;99295.84;5065635;28;20054;-80
2023/01/09 06:33:22;;;;;;;2.33;0.80;;;;;;;8.11;46.48;99290.38;5048558;28;20572;-81
2023/01/09 06:35:50;;;;;;;3.30;0.70;;;;;;;8.11;46.88;99284.06;5049516;28;20047;-81
2023/01/09 06:38:18;;;;;;;1.83;0.80;;;;;;;8.13;46.87;99303.84;5043864;28;20049;-80
2023/01/09 06:40:47;;;;;;;1.95;0.70;;;;;;;8.13;46.88;99310.19;5069993;28;20101;-82
2023/01/09 06:43:16;;;;;;;1.00;0.70;;;;;;;8.15;46.71;99310.03;5052408;28;20032;-81
2023/01/09 06:45:44;;;;;;;2.47;0.90;;;;;;;8.13;46.75;99301.13;5040522;28;20036;-81
2023/01/09 06:48:12;;;;;;;1.85;0.80;;;;;;;8.13;46.53;99302.03;5059334;28;20438;-81
2023/01/09 06:50:40;;;;;;;4.25;0.90;;;;;;;8.13;46.61;99307.47;5048758;28;20066;-81
2023/01/09 06:53:09;;;;;;;2.40;0.70;;;;;;;8.13;46.38;99306.59;5047994;28;20044;-80
2023/01/09 06:55:37;;;;;;;2.65;0.77;;;;;;;8.12;46.73;99307.59;5062953;28;20103;-81
2023/01/09 06:58:05;;;;;;;2.60;0.80;;;;;;;8.12;46.31;99303.00;5045542;28;20109;-81
2023/01/09 07:00:34;;;;;;;2.55;0.77;;;;;;;8.13;46.19;99304.75;5049641;28;20040;-81
2023/01/09 07:03:02;;;;;;;2.95;0.70;;;;;;;8.11;46.27;99295.84;5045652;28;20495;-82
2023/01/09 07:05:30;;;;;;;1.30;0.75;;;;;;;8.11;46.67;99292.25;5054512;28;20100;-81
2023/01/09 07:07:58;;;;;;;1.77;0.80;;;;;;;8.10;46.45;99293.25;5064842;28;20546;-83
2023/01/09 07:10:26;;;;;;;2.35;0.70;;;;;;;8.10;46.46;99290.53;5050140;28;20074;-82
2023/01/09 07:12:54;;;;;;;1.90;0.82;;;;;;;8.10;46.47;99293.25;5042837;28;20052;-82
2023/01/09 07:15:22;;;;;;;3.45;0.90;;;;;;;8.11;46.18;99289.53;5067798;28;20499;-82
2023/01/09 07:17:53;;;;;;;4.07;0.85;;;;;;;8.10;46.48;99285.94;5041785;28;20041;-82
2023/01/09 07:20:20;;;;;;;2.63;1.10;;;;;;;8.10;46.64;99294.13;5049671;28;20041;-82
2023/01/09 07:22:48;;;;;;;3.08;1.08;;;;;;;8.10;46.42;99296.84;5052156;28;20055;-82
2023/01/09 07:25:16;;;;;;;3.13;1.08;;;;;;;8.10;46.45;99304.16;5064865;28;20090;-82
2023/01/09 07:27:44;;;;;;;2.10;0.70;;;;;;;8.11;46.35;99300.41;5064094;28;20369;-82
2023/01/09 07:30:13;;;;;;;2.38;0.80;;;;;;;8.11;46.68;99298.56;5046075;28;20037;-82
2023/01/09 07:32:41;;;;;;;2.30;0.88;;;;;;;8.10;46.57;99299.56;5075207;28;20080;-81
2023/01/09 07:35:11;;;;;;;2.03;0.77;;;;;;;8.12;46.66;99313.03;5065871;28;20079;-82
2023/01/09 07:37:39;;;;;;;2.75;1.17;;;;;;;8.10;46.48;99307.75;5082275;28;20040;-82
2023/01/09 07:40:08;;;;;;;3.70;0.90;;;;;;;8.12;46.48;99310.31;5047147;28;20057;-81
2023/01/09 07:42:36;;;;;;;4.03;1.20;;;;;;;8.11;46.27;99327.66;5046879;28;20041;-82
2023/01/09 07:45:05;;;;;;;2.20;0.93;;;;;;;8.12;46.75;99318.50;5048247;28;20471;-81
2023/01/09 07:47:32;;;;;;;1.95;0.82;;;;;;;8.10;46.42;99321.38;5070808;28;20546;-82
2023/01/09 07:50:00;;;;;;;4.45;0.95;;;;;;;8.12;46.23;99324.78;5064579;28;20051;-82
2023/01/09 07:52:29;;;;;;;2.90;0.95;;;;;;;8.13;46.51;99318.38;5053966;28;20049;-82
2023/01/09 07:54:57;;;;;;;2.67;1.00;;;;;;;8.12;46.61;99313.03;5056416;28;20047;-82
2023/01/09 07:57:25;;;;;;;2.30;0.70;;;;;;;8.13;46.62;99320.22;5054266;28;20057;-81
2023/01/09 07:59:53;;;;;;;2.20;0.90;;;;;;;8.12;46.54;99318.50;5063868;28;20057;-82
2023/01/09 08:02:21;;;;;;;1.45;0.80;;;;;;;8.13;46.33;99320.22;5052366;28;20055;-82
2023/01/09 08:04:49;;;;;;;2.72;0.98;;;;;;;8.14;46.79;99327.41;5041900;28;20052;-82
2023/01/09 08:07:16;;;;;;;3.78;0.90;;;;;;;8.13;46.31;99326.53;5069002;28;20102;-81
2023/01/09 08:09:46;;;;;;;4.03;1.00;;;;;;;8.13;46.64;99331.09;5053714;28;20410;-81
2023/01/09 08:12:14;;;;;;;3.50;1.20;;;;;;;8.12;46.66;99322.06;5054099;28;20045;-83
2023/01/09 08:14:42;;;;;;;2.97;0.95;;;;;;;8.13;46.45;99339.28;5062462;28;20064;-85
2023/01/09 08:17:10;;;;;;;1.52;0.70;;;;;;;8.13;46.39;99334.72;5050998;28;20152;-81
2023/01/09 08:19:38;;;;;;;3.97;0.95;;;;;;;8.13;46.53;99328.38;5050394;28;20557;-82
2023/01/09 08:22:06;;;;;;;5.47;1.00;;;;;;;8.12;46.62;99324.78;5058527;28;20048;-81
2023/01/09 08:24:35;;;;;;;3.40;1.00;;;;;;;8.13;46.68;99334.72;5061545;28;20119;-83
2023/01/09 08:27:04;;;;;;;2.25;0.85;;;;;;;8.14;46.44;99339.16;5048576;28;20052;-81
2023/01/09 08:29:32;;;;;;;3.10;1.00;;;;;;;8.14;46.78;99341.03;5042306;28;20071;-81
2023/01/09 08:32:00;;;;;;;2.88;0.80;;;;;;;8.12;46.35;99334.84;5049360;28;20052;-80
2023/01/09 08:34:28;;;;;;;2.95;0.80;;;;;;;8.14;46.52;99344.63;5060305;28;20041;-81
2023/01/09 08:36:57;;;;;;;4.63;1.50;;;;;;;8.13;46.83;99342.00;5047798;28;20132;-80
2023/01/09 08:39:25;;;;;;;3.58;1.00;;;;;;;8.14;46.63;99352.78;5049055;28;20529;-80
2023/01/09 08:47:27;;;;;;;3.17;0.90;;;;;;;8.16;46.49;99355.38;5068132;28;20052;-82
2023/01/09 08:49:55;;;;;;;2.28;0.82;;;;;;;8.17;46.25;99352.50;5065508;28;20040;-82
2023/01/09 08:52:23;;;;;;;3.10;1.17;;;;;;;8.18;46.42;99359.63;5047471;28;20060;-80
2023/01/09 08:54:50;;;;;;;3.17;1.05;;;;;;;8.19;46.00;99363.22;5046258;28;20765;-82
2023/01/09 08:57:18;;;;;;;3.53;1.27;;;;;;;8.21;46.06;99355.75;5052043;28;20446;-81
2023/01/09 08:59:48;;;;;;;2.45;0.90;;;;;;;8.23;46.29;99368.22;5056909;28;20037;-82
2023/01/09 09:02:16;;;;;;;2.08;0.90;;;;;;;8.23;46.34;99376.38;5043724;28;20072;-82
2023/01/09 09:04:45;;;;;;;5.07;1.10;;;;;;;8.25;46.10;99362.59;5065901;28;20499;-82
2023/01/09 09:07:12;;;;;;;2.92;1.00;;;;;;;8.26;46.35;99381.50;5044528;28;20072;-80
2023/01/09 09:09:40;;;;;;;3.92;1.75;;;;;;;8.26;46.31;99376.06;5067449;28;20037;-82
2023/01/09 09:12:08;;;;;;;3.75;1.30;;;;;;;8.27;46.44;99377.78;5043879;28;20056;-79
2023/01/09 09:17:23;;;;;;;2.95;1.20;;;;;;;8.30;46.27;99384.78;5065031;28;20648;-82
2023/01/09 09:19:51;;;;;;;4.40;1.42;;;;;;;8.32;46.34;99390.94;5061120;28;20044;-83
2023/01/09 09:22:18;;;;;;;2.30;1.02;;;;;;;8.33;46.26;99387.22;5036322;28;20091;-83
2023/01/09 09:24:46;;;;;;;3.10;1.10;;;;;;;8.34;46.28;99394.38;5042265;28;20043;-82
2023/01/09 09:27:14;;;;;;;3.47;1.10;;;;;;;8.33;46.07;99388.06;5066173;28;20064;-82
2023/01/09 09:29:42;;;;;;;2.20;0.88;;;;;;;8.38;45.77;99392.19;5048104;28;20372;-82
2023/01/09 09:32:10;;;;;;;3.55;0.93;;;;;;;8.38;46.43;99393.03;5066043;28;20526;-82
2023/01/09 09:34:39;;;;;;;3.85;1.20;;;;;;;8.41;46.15;99408.25;5058349;28;20041;-82
2023/01/09 09:37:07;;;;;;;4.00;1.45;;;;;;;8.41;46.01;99409.09;5064316;28;20060;-81
2023/01/09 09:39:35;;;;;;;3.10;0.90;;;;;;;8.43;46.08;99414.38;5061938;28;20037;-82
2023/01/09 09:45:15;;;;;;;2.92;1.00;;;;;;;8.44;45.80;99425.13;5066735;28;20087;-81
2023/01/09 09:47:52;;;;;;;2.13;0.88;;;;;;;8.44;45.99;99430.59;5060243;28;20106;-80
2023/01/09 09:50:43;;;;;;;2.28;0.90;;;;;;;8.46;46.05;99441.34;5058118;28;20041;-82
2023/01/09 09:53:16;;;;;;;1.77;0.75;;;;;;;8.45;46.28;99440.47;5046220;28;20052;-81
2023/01/09 09:55:48;;;;;;;1.48;0.80;;;;;;;8.47;45.92;99432.16;5065959;28;20041;-82
2023/01/09 09:58:21;;;;;;;2.25;1.05;;;;;;;8.48;45.96;99450.22;5056365;28;20520;-81
2023/01/09 10:00:50;;;;;;;2.15;0.90;;;;;;;8.49;46.32;99449.22;5072658;28;20044;-81
2023/01/09 10:03:28;;;;;;;2.78;0.85;;;;;;;8.52;45.86;99447.03;5070390;23;20051;-66
2023/01/09 10:06:07;;;;;;;2.85;0.80;;;;;;;8.51;46.28;99458.06;5086862;28;20123;-65
2023/01/09 10:08:41;;;;;;;2.25;0.80;;;;;;;8.54;46.38;99465.97;5073348;28;20068;-66
2023/01/09 10:11:15;;;;;;;0.88;0.60;;;;;;;8.52;46.03;99463.38;5076978;28;20048;-66
2023/01/09 10:16:46;;;;;;;2.42;0.85;;;;;;;8.56;45.83;99472.13;5077136;28;20302;-66
2023/01/09 10:19:24;;;;;;;2.03;0.80;;;;;;;8.54;46.25;99472.28;5080750;28;20040;-66
2023/01/09 10:22:00;;;;;;;1.88;0.80;;;;;;;8.58;45.69;99472.84;5085765;28;20149;-66
2023/01/09 10:24:47;;;;;;;2.17;0.90;;;;;;;8.59;45.81;99469.06;5082203;28;20055;-66
2023/01/09 10:27:23;;;;;;;2.13;1.00;;;;;;;8.57;46.04;99477.44;5063090;28;20045;-66
2023/01/09 10:30:03;;;;;;;2.00;0.73;;;;;;;8.59;45.98;99467.19;5065111;28;20072;-65
2023/01/09 10:32:45;;;;;;;1.73;0.80;;;;;;;8.60;45.79;99476.22;5082020;28;20120;-67
2023/01/09 10:35:31;;;;;;;2.33;0.77;;;;;;;8.59;45.68;99475.38;5076751;28;20426;-67
2023/01/09 10:38:20;;;;;;;1.75;0.70;;;;;;;8.59;45.86;99471.78;5053393;28;20305;-66
2023/01/09 10:40:52;;;;;;;2.97;0.90;;;;;;;8.60;45.84;99490.72;5085923;28;20131;-65
2023/01/09 10:43:29;;;;;;;2.28;0.70;;;;;;;8.60;45.88;99484.41;5081259;28;20499;-66
2023/01/09 10:46:03;;;;;;;2.28;0.90;;;;;;;8.61;45.75;99475.22;5082864;28;20040;-67
2023/01/09 10:48:34;;;;;;;1.77;0.63;;;;;;;8.61;45.73;99472.50;5079146;28;20075;-66
2023/01/09 10:51:05;;;;;;;2.60;0.70;;;;;;;8.61;45.94;99475.22;5086532;28;20042;-66
2023/01/09 10:53:39;;;;;;;2.13;0.82;;;;;;;8.62;45.63;99475.06;5072842;28;20119;-66
2023/01/09 10:56:17;;;;;;;1.83;0.60;;;;;;;8.62;45.44;99475.06;5041735;28;20136;-65
2023/01/09 10:58:45;;;;;;;2.85;0.80;;;;;;;8.61;45.80;99477.94;5062192;28;20551;-70
2023/01/09 11:01:14;;;;;;;2.08;0.90;;;;;;;8.60;46.00;99471.63;5067209;28;20036;-71
2023/01/09 11:03:42;;;;;;;2.30;0.90;;;;;;;8.61;45.88;99481.53;5062670;28;20354;-67
2023/01/09 11:06:21;;;;;;;2.67;0.90;;;;;;;8.65;45.53;99479.38;5053581;28;20040;-66
2023/01/09 11:08:53;;;;;;;3.53;1.00;;;;;;;8.63;45.81;99481.38;5054838;28;20064;-67
2023/01/09 11:11:33;;;;;;;2.08;0.90;;;;;;;8.61;45.33;99473.34;5055339;28;20476;-67
2023/01/09 11:14:07;;;;;;;2.63;0.90;;;;;;;8.61;45.89;99481.53;5059910;28;20040;-68
2023/01/09 11:16:35;;;;;;;1.92;0.68;;;;;;;8.60;45.98;99476.22;5059529;28;20125;-67
2023/01/09 11:19:03;;;;;;;2.13;0.88;;;;;;;8.61;45.94;99475.22;5053848;28;20052;-67
2023/01/09 11:21:34;;;;;;;1.98;0.90;;;;;;;8.61;45.54;99464.31;5056542;28;20040;-66
2023/01/09 11:24:27;;;;;;;1.85;0.70;;;;;;;8.62;45.62;99468.75;5052601;28;20464;-67
2023/01/09 11:27:22;;;;;;;3.60;1.25;;;;;;;8.58;45.60;99470.97;5048797;28;20045;-64
2023/01/09 11:30:07;;;;;;;2.75;0.90;;;;;;;8.60;45.35;99478.97;5056351;28;20063;-66
2023/01/09 11:32:36;;;;;;;2.40;0.90;;;;;;;8.58;45.63;99479.16;5057973;28;20072;-67
2023/01/09 11:35:06;;;;;;;1.17;0.70;;;;;;;8.60;45.84;99474.38;5057495;28;20037;-67
2023/01/09 11:37:34;;;;;;;3.17;0.90;;;;;;;8.61;45.48;99475.22;5062165;28;20098;-66
2023/01/09 11:40:04;;;;;;;2.47;0.90;;;;;;;8.63;45.56;99490.44;5058701;28;20045;-66
2023/01/09 11:42:50;;;;;;;2.55;0.90;;;;;;;8.62;45.68;99490.59;5053350;28;20052;-66
2023/01/09 11:45:20;;;;;;;2.75;0.80;;;;;;;8.63;45.65;99487.69;5058498;28;20044;-66
2023/01/09 11:47:48;;;;;;;3.00;0.98;;;;;;;8.64;45.89;99499.47;5060293;28;20404;-66
2023/01/09 11:50:18;;;;;;;2.42;0.80;;;;;;;8.67;45.85;99500.00;5051062;28;20040;-66
2023/01/09 11:52:47;;;;;;;2.65;0.90;;;;;;;8.67;45.63;99510.09;5052606;28;20332;-66
2023/01/09 11:55:19;;;;;;;1.60;0.80;;;;;;;8.69;45.36;99506.16;5059570;28;20120;-66
2023/01/09 11:57:49;;;;;;;3.37;0.80;;;;;;;8.66;45.66;99517.41;5057647;28;20030;-65
2023/01/09 12:00:27;;;;;;;2.13;0.90;;;;;;;8.71;45.48;99515.06;5063417;28;20294;-65
2023/01/09 12:03:11;;;;;;;3.00;0.88;;;;;;;8.73;44.97;99519.50;5058806;28;20570;-66
2023/01/09 12:05:52;;;;;;;1.80;0.90;;;;;;;8.72;45.20;99518.66;5061115;28;20041;-66
2023/01/09 12:08:39;;;;;;;3.20;1.10;;;;;;;8.73;45.14;99533.16;5055663;28;20048;-66
2023/01/09 12:11:23;;;;;;;1.67;0.82;;;;;;;8.73;44.87;99536.72;5075073;28;20056;-66
2023/01/09 12:14:24;;;;;;;1.67;0.80;;;;;;;8.70;44.91;99540.63;5079115;28;20074;-65
2023/01/09 12:17:21;;;;;;;1.80;0.70;;;;;;;8.71;44.71;99553.25;5081376;28;20036;-65